createdAt,value
2023-01-27T00:01:47.666Z,19.75
2023-01-27T00:04:15.904Z,20.63
2023-01-27T00:06:44.357Z,19.98
2023-01-27T00:09:13.536Z,18.13
2023-01-27T00:12:00.153Z,17.70
2023-01-27T00:14:29.894Z,17.52
2023-01-27T00:16:58.601Z,17.63
2023-01-27T00:19:27.458Z,17.42
2023-01-27T00:22:15.710Z,17.00
2023-01-27T00:24:44.267Z,17.38
2023-01-27T00:27:12.696Z,19.13
2023-01-27T00:29:42.576Z,20.70
2023-01-27T00:32:29.193Z,28.58
2023-01-27T00:34:58.786Z,33.42
2023-01-27T00:37:27.468Z,46.80
2023-01-27T00:39:55.794Z,39.70
2023-01-27T00:42:24.283Z,38.58
2023-01-27T00:45:12.732Z,34.45
2023-01-27T00:47:41.059Z,30.48
2023-01-27T00:50:10.743Z,26.55
2023-01-27T00:52:39.531Z,25.02
2023-01-27T00:55:08.980Z,21.15
2023-01-27T00:57:37.634Z,16.90
2023-01-27T01:00:12.161Z,17.50
2023-01-27T01:02:40.785Z,16.80
2023-01-27T01:05:10.140Z,15.63
2023-01-27T01:07:38.655Z,15.70
2023-01-27T01:10:10.846Z,17.20
2023-01-27T01:12:39.460Z,16.20
2023-01-27T01:15:10.190Z,16.13
2023-01-27T01:17:38.393Z,16.50
2023-01-27T01:20:07.861Z,15.55
2023-01-27T01:22:36.305Z,15.77
2023-01-27T01:25:05.310Z,16.23
2023-01-27T01:27:33.519Z,16.73
2023-01-27T01:30:02.205Z,15.55
2023-01-27T01:32:32.040Z,16.05
2023-01-27T01:35:00.713Z,16.08
2023-01-27T01:37:29.096Z,14.70
2023-01-27T01:39:57.399Z,16.00
2023-01-27T01:42:26.319Z,17.45
2023-01-27T01:45:40.071Z,15.80
2023-01-27T01:48:15.155Z,16.15
2023-01-27T01:50:49.753Z,16.77
2023-01-27T01:53:18.978Z,16.85
2023-01-27T01:55:49.170Z,15.60
2023-01-27T01:58:21.137Z,17.25
2023-01-27T02:00:49.568Z,16.98
2023-01-27T02:03:20.901Z,17.98
2023-01-27T02:05:49.297Z,16.95
2023-01-27T02:08:22.863Z,17.27
2023-01-27T02:10:52.632Z,16.60
2023-01-27T02:13:21.258Z,15.88
2023-01-27T02:15:51.631Z,15.90
2023-01-27T02:18:22.323Z,15.77
2023-01-27T02:20:53.223Z,15.30
2023-01-27T02:23:37.213Z,16.37
2023-01-27T02:26:12.583Z,15.63
2023-01-27T02:28:41.327Z,15.55
2023-01-27T02:31:10.419Z,15.70
2023-01-27T02:33:38.827Z,15.63
2023-01-27T02:36:10.684Z,15.07
2023-01-27T02:38:45.174Z,15.15
2023-01-27T02:41:20.043Z,16.05
2023-01-27T02:43:49.432Z,15.80
2023-01-27T02:46:17.906Z,15.27
2023-01-27T02:48:46.595Z,16.27
2023-01-27T02:51:15.020Z,14.43
2023-01-27T02:53:45.638Z,15.52
2023-01-27T02:56:15.363Z,15.32
2023-01-27T02:58:44.741Z,14.87
2023-01-27T03:01:19.596Z,15.27
2023-01-27T03:03:48.236Z,16.00
2023-01-27T03:06:21.435Z,15.23
2023-01-27T03:08:49.659Z,15.90
2023-01-27T03:11:40.013Z,16.38
2023-01-27T03:14:09.447Z,16.10
2023-01-27T03:16:55.750Z,16.77
2023-01-27T03:19:24.049Z,16.33
2023-01-27T03:21:54.119Z,16.45
2023-01-27T03:24:24.118Z,16.45
2023-01-27T03:26:57.587Z,15.95
2023-01-27T03:30:00.045Z,18.23
2023-01-27T03:32:30.366Z,18.92
2023-01-27T03:35:18.877Z,17.10
2023-01-27T03:38:08.304Z,16.58
2023-01-27T03:40:54.293Z,15.07
2023-01-27T03:43:41.468Z,15.93
2023-01-27T03:46:18.513Z,15.27
2023-01-27T03:48:51.344Z,16.63
2023-01-27T03:51:20.836Z,17.48
2023-01-27T03:53:49.440Z,16.05
2023-01-27T03:56:19.241Z,15.68
2023-01-27T03:58:50.632Z,15.32
2023-01-27T04:01:21.693Z,15.27
2023-01-27T04:06:53.652Z,14.85
2023-01-27T04:09:23.806Z,15.15
2023-01-27T04:11:59.950Z,14.48
2023-01-27T04:14:32.071Z,15.10
2023-01-27T04:17:02.502Z,15.63
2023-01-27T04:19:31.483Z,15.93
2023-01-27T04:22:01.744Z,15.75
2023-01-27T04:24:30.473Z,17.25
2023-01-27T04:27:00.936Z,15.80
2023-01-27T04:29:32.965Z,15.50
2023-01-27T04:32:01.148Z,15.18
2023-01-27T04:34:30.384Z,15.77
2023-01-27T04:36:59.149Z,16.77
2023-01-27T04:39:28.439Z,16.20
2023-01-27T04:41:57.296Z,16.70
2023-01-27T04:44:25.804Z,16.52
2023-01-27T04:46:55.583Z,16.30
2023-01-27T04:49:26.919Z,14.68
2023-01-27T04:51:55.557Z,15.13
2023-01-27T04:54:23.929Z,16.40
2023-01-27T04:56:57.643Z,15.15
2023-01-27T04:59:26.581Z,15.23
2023-01-27T05:01:56.380Z,14.75
2023-01-27T05:04:26.547Z,15.18
2023-01-27T05:06:55.133Z,14.88
2023-01-27T05:09:23.426Z,16.63
2023-01-27T05:11:51.825Z,14.57
2023-01-27T05:14:20.231Z,16.20
2023-01-27T05:16:48.599Z,15.05
2023-01-27T05:19:19.018Z,15.07
2023-01-27T05:21:47.377Z,16.00
2023-01-27T05:24:16.085Z,14.32
2023-01-27T05:26:44.456Z,15.00
2023-01-27T05:29:12.740Z,16.10
2023-01-27T05:31:41.145Z,14.52
2023-01-27T05:34:09.989Z,15.48
2023-01-27T05:36:39.701Z,15.85
2023-01-27T05:39:09.154Z,16.50
2023-01-27T05:41:37.650Z,15.75
2023-01-27T05:44:07.670Z,15.15
2023-01-27T05:46:40.663Z,15.95
2023-01-27T05:49:09.600Z,14.75
2023-01-27T05:51:41.157Z,17.15
2023-01-27T05:54:10.745Z,16.10
2023-01-27T05:56:39.402Z,15.18
2023-01-27T05:59:08.315Z,15.27
2023-01-27T06:01:37.632Z,14.95
2023-01-27T06:04:07.273Z,14.93
2023-01-27T06:06:35.842Z,15.98
2023-01-27T06:09:05.993Z,14.73
2023-01-27T06:11:34.458Z,15.48
2023-01-27T06:14:03.182Z,15.88
2023-01-27T06:16:32.221Z,18.10
2023-01-27T06:19:00.854Z,19.00
2023-01-27T06:21:29.157Z,18.00
2023-01-27T06:23:58.408Z,17.70
2023-01-27T06:26:28.167Z,17.08
2023-01-27T06:28:58.334Z,17.35
2023-01-27T06:31:27.643Z,15.60
2023-01-27T06:33:56.187Z,15.30
2023-01-27T06:36:24.705Z,15.68
2023-01-27T06:38:53.674Z,16.50
2023-01-27T06:41:21.839Z,15.52
2023-01-27T06:43:51.798Z,16.38
2023-01-27T06:46:20.125Z,15.43
2023-01-27T06:48:48.492Z,15.52
2023-01-27T06:51:17.456Z,16.67
2023-01-27T06:53:45.850Z,16.30
2023-01-27T06:56:16.383Z,16.35
2023-01-27T06:58:45.622Z,15.50
2023-01-27T07:01:15.539Z,16.27
2023-01-27T07:03:45.148Z,16.08
2023-01-27T07:06:15.263Z,17.70
2023-01-27T07:08:46.557Z,15.88
2023-01-27T07:11:14.850Z,16.50
2023-01-27T07:13:43.532Z,17.65
2023-01-27T07:16:11.992Z,17.50
2023-01-27T07:18:41.947Z,16.58
2023-01-27T07:21:10.450Z,17.60
2023-01-27T07:23:38.839Z,17.15
2023-01-27T07:26:19.230Z,16.48
2023-01-27T07:28:52.464Z,15.93
2023-01-27T07:31:21.086Z,18.25
2023-01-27T07:33:50.987Z,16.63
2023-01-27T07:36:19.728Z,17.40
2023-01-27T07:38:50.604Z,17.13
2023-01-27T07:41:23.152Z,16.42
2023-01-27T07:43:52.456Z,16.92
2023-01-27T07:46:21.280Z,17.05
2023-01-27T07:48:51.091Z,16.38
2023-01-27T07:51:20.193Z,15.60
2023-01-27T07:53:48.510Z,15.52
2023-01-27T07:56:16.881Z,15.52
2023-01-27T07:58:45.304Z,15.82
2023-01-27T08:01:15.029Z,16.33
2023-01-27T08:03:43.547Z,16.17
2023-01-27T08:06:14.127Z,16.75
2023-01-27T08:08:42.745Z,15.38
2023-01-27T08:11:15.382Z,15.20
2023-01-27T08:13:44.035Z,15.40
2023-01-27T08:16:15.089Z,16.02
2023-01-27T08:18:43.866Z,14.70
2023-01-27T08:21:14.713Z,17.08
2023-01-27T08:23:43.458Z,10.57
2023-01-27T08:26:11.790Z,15.02
2023-01-27T08:28:41.745Z,15.85
2023-01-27T08:31:13.183Z,15.20
2023-01-27T08:33:43.391Z,16.33
2023-01-27T08:36:15.293Z,14.85
2023-01-27T08:38:44.966Z,15.95
2023-01-27T08:41:15.031Z,15.88
2023-01-27T08:43:44.769Z,14.57
2023-01-27T08:46:14.252Z,15.55
2023-01-27T08:48:43.123Z,13.93
2023-01-27T08:51:15.521Z,15.07
2023-01-27T08:53:44.065Z,15.68
2023-01-27T08:56:14.113Z,15.40
2023-01-27T08:58:42.810Z,16.13
2023-01-27T09:01:11.618Z,17.80
2023-01-27T09:03:40.364Z,17.85
2023-01-27T09:06:10.617Z,19.67
2023-01-27T09:08:40.984Z,17.98
2023-01-27T09:11:11.166Z,15.32
2023-01-27T09:13:39.528Z,16.27
2023-01-27T09:16:08.620Z,15.70
2023-01-27T09:18:37.098Z,15.40
2023-01-27T09:21:06.333Z,15.38
2023-01-27T09:23:35.531Z,16.45
2023-01-27T09:26:05.304Z,15.13
2023-01-27T09:28:33.752Z,15.30
2023-01-27T09:31:02.433Z,16.48
2023-01-27T09:33:30.784Z,14.40
2023-01-27T09:36:05.486Z,15.05
2023-01-27T09:38:45.181Z,15.50
2023-01-27T09:41:30.596Z,14.80
2023-01-27T09:44:14.894Z,17.08
2023-01-27T09:47:02.260Z,15.77
2023-01-27T09:49:45.182Z,14.80
2023-01-27T09:52:47.545Z,15.85
2023-01-27T09:55:23.292Z,15.80
2023-01-27T09:58:00.561Z,15.13
2023-01-27T10:00:43.187Z,15.82
2023-01-27T10:03:47.870Z,16.00
2023-01-27T10:06:34.977Z,16.73
2023-01-27T10:09:35.773Z,15.75
2023-01-27T10:12:18.059Z,16.35
2023-01-27T10:17:38.214Z,14.63
2023-01-27T10:20:20.475Z,14.60
2023-01-27T10:23:02.258Z,14.70
2023-01-27T10:28:13.440Z,14.10
2023-01-27T10:30:52.469Z,14.50
2023-01-27T10:33:22.104Z,15.13
2023-01-27T10:35:54.243Z,14.80
2023-01-27T10:38:35.020Z,14.98
2023-01-27T10:41:13.699Z,15.43
2023-01-27T10:43:58.115Z,14.82
2023-01-27T10:46:42.043Z,15.25
2023-01-27T10:49:23.123Z,14.27
2023-01-27T10:51:56.099Z,15.57
2023-01-27T10:54:33.152Z,14.50
2023-01-27T10:57:07.383Z,15.02
2023-01-27T10:59:41.724Z,15.50
2023-01-27T11:02:24.425Z,14.60
2023-01-27T11:04:58.549Z,15.60
2023-01-27T11:07:27.391Z,13.93
2023-01-27T11:09:58.185Z,13.52
2023-01-27T11:12:31.910Z,14.88
2023-01-27T11:15:02.660Z,14.70
2023-01-27T11:17:38.373Z,15.40
2023-01-27T11:20:13.771Z,13.85
2023-01-27T11:22:52.308Z,13.88
2023-01-27T11:25:27.634Z,13.38
2023-01-27T11:28:05.283Z,13.00
2023-01-27T11:30:39.621Z,14.18
2023-01-27T11:33:19.890Z,13.10
2023-01-27T11:35:48.982Z,13.77
2023-01-27T11:38:20.789Z,13.75
2023-01-27T11:40:51.364Z,13.20
2023-01-27T11:43:22.474Z,13.93
2023-01-27T11:45:53.956Z,12.68
2023-01-27T11:48:24.033Z,11.95
2023-01-27T11:50:52.341Z,12.82
2023-01-27T11:53:28.366Z,11.35
2023-01-27T11:56:01.724Z,10.90
2023-01-27T11:58:35.487Z,11.10
2023-01-27T12:01:07.212Z,10.82
2023-01-27T12:03:54.306Z,10.25
2023-01-27T12:06:36.585Z,11.02
2023-01-27T12:09:05.332Z,11.10
2023-01-27T12:11:34.177Z,11.10
2023-01-27T12:14:05.517Z,10.30
2023-01-27T12:16:46.170Z,10.20
2023-01-27T12:19:25.936Z,10.55
2023-01-27T12:21:59.212Z,10.45
2023-01-27T12:24:32.066Z,12.48
2023-01-27T12:27:01.824Z,11.88
2023-01-27T12:29:39.481Z,12.25
2023-01-27T12:32:17.382Z,11.73
2023-01-27T12:34:51.018Z,13.15
2023-01-27T12:37:26.541Z,11.98
2023-01-27T12:40:00.465Z,11.60
2023-01-27T12:42:37.372Z,11.35
2023-01-27T12:45:24.767Z,11.50
2023-01-27T12:48:17.876Z,10.70
2023-01-27T12:53:28.235Z,10.70
2023-01-27T12:56:00.956Z,12.00
2023-01-27T12:58:36.376Z,11.45
2023-01-27T13:01:07.631Z,11.48
2023-01-27T13:03:41.832Z,11.50
2023-01-27T13:06:16.990Z,12.65
2023-01-27T13:08:47.079Z,11.52
2023-01-27T13:11:30.957Z,12.25
2023-01-27T13:13:59.635Z,10.85
2023-01-27T13:16:30.371Z,12.70
2023-01-27T13:19:01.585Z,12.57
2023-01-27T13:21:37.279Z,15.10
2023-01-27T13:24:12.375Z,17.70
2023-01-27T13:26:42.333Z,15.07
2023-01-27T13:29:16.763Z,14.98
2023-01-27T13:31:52.070Z,12.85
2023-01-27T13:34:27.415Z,12.80
2023-01-27T13:37:02.728Z,12.10
2023-01-27T13:39:50.592Z,13.48
2023-01-27T13:42:24.847Z,13.52
2023-01-27T13:45:00.534Z,11.75
2023-01-27T13:47:35.150Z,12.52
2023-01-27T13:50:09.905Z,12.20
2023-01-27T13:52:39.759Z,12.52
2023-01-27T13:55:14.040Z,13.15
2023-01-27T13:58:06.883Z,11.80
2023-01-27T14:00:42.975Z,14.45
2023-01-27T14:03:57.816Z,14.88
2023-01-27T14:06:38.720Z,12.98
2023-01-27T14:09:20.602Z,15.55
2023-01-27T14:11:56.501Z,13.50
2023-01-27T14:14:58.102Z,12.40
2023-01-27T14:17:38.463Z,11.75
2023-01-27T14:20:34.581Z,13.73
2023-01-27T14:23:15.537Z,11.82
2023-01-27T14:25:56.981Z,12.93
2023-01-27T14:28:33.630Z,11.82
2023-01-27T14:31:08.098Z,11.23
2023-01-27T14:33:50.560Z,12.07
2023-01-27T14:36:22.997Z,12.32
2023-01-27T14:39:03.879Z,11.32
2023-01-27T14:41:41.314Z,11.80
2023-01-27T14:44:21.162Z,11.40
2023-01-27T14:47:02.008Z,11.43
2023-01-27T14:49:47.681Z,12.15
2023-01-27T14:52:27.600Z,11.50
2023-01-27T14:55:17.004Z,11.98
2023-01-27T14:57:56.895Z,11.20
2023-01-27T15:00:43.724Z,12.43
2023-01-27T15:03:45.256Z,11.98
2023-01-27T15:06:20.087Z,12.40
2023-01-27T15:08:57.259Z,12.95
2023-01-27T15:11:51.663Z,10.90
2023-01-27T15:14:43.544Z,12.38
2023-01-27T15:17:28.173Z,11.43
2023-01-27T15:20:15.176Z,11.73
2023-01-27T15:22:56.204Z,11.77
2023-01-27T15:25:36.358Z,12.63
2023-01-27T15:28:06.178Z,10.82
2023-01-27T15:30:38.645Z,13.25
2023-01-27T15:33:40.765Z,12.07
2023-01-27T15:39:01.146Z,49.03
2023-01-27T15:41:29.912Z,46.45
2023-01-27T15:44:15.523Z,30.67
2023-01-27T15:46:47.486Z,27.45
2023-01-27T15:49:20.730Z,23.83
2023-01-27T15:51:51.496Z,18.05
2023-01-27T15:54:25.721Z,17.40
2023-01-27T15:56:55.759Z,17.35
2023-01-27T15:59:28.020Z,17.70
2023-01-27T16:02:14.368Z,17.00
2023-01-27T16:04:43.605Z,24.17
2023-01-27T16:07:23.877Z,26.05
2023-01-27T16:09:53.545Z,20.63
2023-01-27T16:12:38.976Z,21.52
2023-01-27T16:15:35.290Z,24.65
2023-01-27T16:18:28.423Z,31.55
2023-01-27T16:21:03.324Z,23.02
2023-01-27T16:23:46.228Z,25.33
2023-01-27T16:26:30.489Z,28.85
2023-01-27T16:29:25.794Z,47.50
2023-01-27T16:31:59.837Z,26.55
2023-01-27T16:34:36.209Z,23.08
2023-01-27T16:37:18.582Z,18.67
2023-01-27T16:39:51.554Z,17.55
2023-01-27T16:42:22.687Z,17.70
2023-01-27T16:44:54.712Z,16.05
2023-01-27T16:47:27.981Z,16.55
2023-01-27T16:49:59.883Z,16.30
2023-01-27T16:52:41.765Z,16.00
2023-01-27T16:55:22.466Z,16.35
2023-01-27T16:57:51.970Z,15.60
2023-01-27T17:00:23.543Z,16.45
2023-01-27T17:02:54.196Z,15.63
2023-01-27T17:05:24.453Z,15.85
2023-01-27T17:08:17.071Z,18.83
2023-01-27T17:10:50.326Z,14.77
2023-01-27T17:13:32.916Z,14.38
2023-01-27T17:16:04.776Z,16.40
2023-01-27T17:18:50.896Z,15.18
2023-01-27T17:21:38.953Z,15.40
2023-01-27T17:24:22.614Z,16.92
2023-01-27T17:26:59.788Z,16.58
2023-01-27T17:29:35.544Z,16.30
2023-01-27T17:32:05.631Z,16.90
2023-01-27T17:34:34.544Z,17.67
2023-01-27T17:37:08.783Z,18.05
2023-01-27T17:39:39.317Z,16.50
2023-01-27T17:42:08.210Z,18.00
2023-01-27T17:44:36.774Z,16.15
2023-01-27T17:47:07.725Z,18.45
2023-01-27T17:49:36.297Z,16.50
2023-01-27T17:52:11.106Z,15.75
2023-01-27T17:54:41.644Z,18.40
2023-01-27T17:57:20.242Z,17.75
2023-01-27T17:59:58.736Z,19.30
2023-01-27T18:02:30.225Z,17.73
2023-01-27T18:05:02.789Z,17.00
2023-01-27T18:07:34.228Z,19.13
2023-01-27T18:10:02.638Z,19.67
2023-01-27T18:12:35.777Z,19.52
2023-01-27T18:15:42.771Z,18.45
2023-01-27T18:18:23.655Z,17.50
2023-01-27T18:21:04.250Z,17.20
2023-01-27T18:23:36.898Z,17.63
2023-01-27T18:26:14.551Z,17.92
2023-01-27T18:28:44.825Z,23.90
2023-01-27T18:31:18.864Z,21.17
2023-01-27T18:33:55.927Z,21.27
2023-01-27T18:36:29.400Z,32.05
2023-01-27T18:38:59.041Z,18.50
2023-01-27T18:41:32.034Z,17.00
2023-01-27T18:44:01.769Z,16.67
2023-01-27T18:46:30.476Z,16.05
2023-01-27T18:49:01.104Z,16.52
2023-01-27T18:51:29.582Z,16.90
2023-01-27T18:53:59.489Z,16.95
2023-01-27T18:56:28.431Z,14.80
2023-01-27T18:58:56.951Z,16.08
2023-01-27T19:01:26.054Z,14.60
2023-01-27T19:03:57.576Z,15.07
2023-01-27T19:06:27.005Z,13.70
2023-01-27T19:08:55.406Z,15.80
2023-01-27T19:11:28.815Z,13.77
2023-01-27T19:14:00.000Z,13.95
2023-01-27T19:16:28.733Z,14.48
2023-01-27T19:18:57.038Z,14.35
2023-01-27T19:21:25.473Z,13.18
2023-01-27T19:23:53.868Z,12.38
2023-01-27T19:26:26.301Z,11.63
2023-01-27T19:28:57.725Z,12.50
2023-01-27T19:31:26.642Z,12.63
2023-01-27T19:33:56.785Z,10.93
2023-01-27T19:36:31.349Z,13.00
2023-01-27T19:39:12.718Z,12.30
2023-01-27T19:41:43.188Z,11.07
2023-01-27T19:44:11.475Z,11.43
2023-01-27T19:46:40.591Z,10.45
2023-01-27T19:49:15.815Z,10.48
2023-01-27T19:51:44.806Z,10.15
2023-01-27T19:54:13.563Z,9.55
2023-01-27T19:56:44.698Z,10.90
2023-01-27T19:59:13.965Z,10.77
2023-01-27T20:01:42.339Z,12.45
2023-01-27T20:04:12.095Z,12.48
2023-01-27T20:06:40.723Z,11.02
2023-01-27T20:09:11.064Z,12.48
2023-01-27T20:11:41.393Z,12.50
2023-01-27T20:14:14.110Z,11.80
2023-01-27T20:16:43.680Z,10.77
2023-01-27T20:19:15.130Z,11.27
2023-01-27T20:21:43.958Z,13.98
2023-01-27T20:24:15.682Z,12.07
2023-01-27T20:26:44.131Z,11.95
2023-01-27T20:29:14.216Z,83.68
2023-01-27T20:31:42.697Z,38.83
2023-01-27T20:34:11.466Z,14.15
2023-01-27T20:36:40.106Z,11.32
2023-01-27T20:39:08.766Z,9.75
2023-01-27T20:41:37.171Z,8.85
2023-01-27T20:44:05.629Z,8.88
2023-01-27T20:46:35.507Z,7.63
2023-01-27T20:49:03.882Z,9.23
2023-01-27T20:51:32.416Z,13.13
2023-01-27T20:54:01.473Z,8.23
2023-01-27T20:56:29.834Z,7.93
2023-01-27T20:58:58.825Z,9.65
2023-01-27T21:01:27.775Z,8.73
2023-01-27T21:03:58.587Z,11.70
2023-01-27T21:08:56.395Z,12.48
2023-01-27T21:11:25.472Z,13.57
2023-01-27T21:13:54.043Z,13.55
2023-01-27T21:16:22.679Z,12.38
2023-01-27T21:18:51.614Z,13.18
2023-01-27T21:21:27.368Z,14.23
2023-01-27T21:23:56.384Z,14.07
2023-01-27T21:26:26.080Z,12.48
2023-01-27T21:28:54.558Z,12.80
2023-01-27T21:31:24.421Z,12.43
2023-01-27T21:33:52.988Z,13.45
2023-01-27T21:36:21.249Z,12.75
2023-01-27T21:38:53.857Z,12.90
2023-01-27T21:41:38.347Z,12.43
2023-01-27T21:44:30.656Z,14.82
2023-01-27T21:46:59.848Z,13.02
2023-01-27T21:49:28.430Z,14.05
2023-01-27T21:51:56.751Z,11.65
2023-01-27T21:54:26.834Z,9.95
2023-01-27T21:56:55.315Z,10.45
2023-01-27T21:59:24.241Z,13.77
2023-01-27T22:01:55.342Z,11.75
2023-01-27T22:04:23.775Z,15.32
2023-01-27T22:06:52.098Z,14.07
2023-01-27T22:09:20.535Z,15.32
2023-01-27T22:11:50.185Z,14.25
2023-01-27T22:14:18.640Z,17.98
2023-01-27T22:16:47.395Z,19.23
2023-01-27T22:19:15.807Z,17.25
2023-01-27T22:21:44.335Z,17.58
2023-01-27T22:24:12.878Z,17.15
2023-01-27T22:26:41.236Z,17.90
2023-01-27T22:29:11.883Z,21.38
2023-01-27T22:31:42.049Z,17.10
2023-01-27T22:34:10.834Z,14.15
2023-01-27T22:36:39.187Z,13.52
2023-01-27T22:39:07.559Z,12.10
2023-01-27T22:41:36.224Z,10.50
2023-01-27T22:44:04.679Z,10.60
2023-01-27T22:46:34.733Z,12.00
2023-01-27T22:49:03.257Z,12.00
2023-01-27T22:51:32.236Z,11.13
2023-01-27T22:54:00.538Z,12.68
2023-01-27T22:56:29.450Z,12.90
2023-01-27T22:58:57.771Z,11.95
2023-01-27T23:01:26.446Z,11.68
2023-01-27T23:03:56.721Z,10.45
2023-01-27T23:06:25.790Z,11.30
2023-01-27T23:08:54.159Z,11.55
2023-01-27T23:11:22.463Z,11.68
2023-01-27T23:13:50.815Z,11.32
2023-01-27T23:16:19.270Z,11.27
2023-01-27T23:18:47.665Z,9.88
2023-01-27T23:21:17.601Z,10.48
2023-01-27T23:23:45.988Z,10.80
2023-01-27T23:26:14.763Z,10.05
2023-01-27T23:28:43.503Z,11.05
2023-01-27T23:31:12.894Z,10.27
2023-01-27T23:33:43.256Z,11.80
2023-01-27T23:36:12.900Z,10.60
2023-01-27T23:38:43.055Z,10.68
2023-01-27T23:41:18.396Z,11.35
2023-01-27T23:43:51.324Z,10.80
2023-01-27T23:46:20.197Z,10.38
2023-01-27T23:48:51.429Z,10.77
2023-01-27T23:51:20.444Z,10.60
2023-01-27T23:53:51.321Z,10.50
2023-01-27T23:56:21.789Z,10.52
2023-01-27T23:58:50.067Z,10.63
